Time;durP1;ratioP1;P1;durP2;ratioP2;P2;SDS_P1;SDS_P2;PMS_P1;PMS_P2;Temp;Humidity;BMP_temperature;BMP_pressure;BME280_temperature;BME280_humidity;BME280_pressure;Samples;Min_cycle;Max_cycle;Signal;HPM_P1;HPM_P2
2021/06/14 00:00:22;;;;;;;7.30;3.50;;;;;;;21.51;54.77;100900.41;146694;587;46018;-59
2021/06/14 00:02:54;;;;;;;6.37;3.58;;;;;;;21.47;55.11;100897.09;146696;606;46018;-59
2021/06/14 00:05:37;;;;;;;7.70;3.70;;;;;;;21.39;54.90;100899.47;146695;565;46010;-58
2021/06/14 00:08:17;;;;;;;5.10;3.47;;;;;;;21.48;54.63;100894.31;146696;590;46019;-59
2021/06/14 00:10:51;;;;;;;6.40;3.50;;;;;;;21.47;54.68;100884.63;146695;581;46018;-59
2021/06/14 00:13:22;;;;;;;6.20;4.05;;;;;;;21.52;54.91;100872.75;146696;620;46018;-59
2021/06/14 00:15:53;;;;;;;5.35;3.37;;;;;;;21.47;55.34;100863.25;146692;608;47018;-59
2021/06/14 00:18:24;;;;;;;6.97;3.90;;;;;;;21.43;55.22;100869.78;146696;581;47008;-59
2021/06/14 00:20:59;;;;;;;5.35;3.80;;;;;;;21.45;55.24;100870.50;146695;570;46016;-60
2021/06/14 00:23:32;;;;;;;7.53;3.90;;;;;;;21.51;55.35;100871.88;146696;579;46008;-60
2021/06/14 00:26:10;;;;;;;5.95;3.60;;;;;;;21.48;55.29;100870.28;146696;569;46010;-60
2021/06/14 00:28:41;;;;;;;7.00;4.00;;;;;;;21.47;55.57;100871.25;146694;569;46018;-59
2021/06/14 00:31:12;;;;;;;8.18;4.15;;;;;;;21.50;55.63;100863.97;146695;587;46022;-60
2021/06/14 00:33:43;;;;;;;5.62;4.03;;;;;;;21.54;55.50;100853.03;146698;566;46008;-60
2021/06/14 00:36:14;;;;;;;6.45;3.78;;;;;;;21.48;55.62;100859.59;146693;609;48022;-59
2021/06/14 00:38:45;;;;;;;6.75;3.72;;;;;;;21.44;55.03;100855.44;146697;590;46019;-60
2021/06/14 00:41:16;;;;;;;7.78;3.67;;;;;;;21.39;55.39;100872.75;146696;576;46018;-60
2021/06/14 00:43:46;;;;;;;6.43;3.65;;;;;;;21.39;54.25;100870.09;146698;575;46008;-60
2021/06/14 00:46:17;;;;;;;6.47;3.87;;;;;;;21.41;53.76;100878.88;146693;602;46020;-59
2021/06/14 00:48:48;;;;;;;7.53;4.40;;;;;;;21.43;54.44;100877.78;146696;587;46018;-59
2021/06/14 00:51:18;;;;;;;5.95;4.10;;;;;;;21.39;54.74;100873.63;146694;579;46018;-60
2021/06/14 00:53:56;;;;;;;6.28;3.15;;;;;;;21.41;54.76;100876.19;146696;647;46009;-60
2021/06/14 00:56:27;;;;;;;6.65;3.62;;;;;;;21.43;54.63;100883.12;146693;563;47010;-59
2021/06/14 00:58:57;;;;;;;8.75;4.10;;;;;;;21.56;54.26;100884.97;146698;592;46008;-59
2021/06/14 01:01:28;;;;;;;8.73;3.70;;;;;;;21.64;53.92;100879.91;146697;572;46011;-60
2021/06/14 01:03:59;;;;;;;8.73;3.70;;;;;;;21.71;53.75;100869.66;146699;577;46008;-61
2021/06/14 01:06:29;;;;;;;6.57;3.80;;;;;;;21.80;53.50;100885.84;146696;684;46010;-60
2021/06/14 01:09:00;;;;;;;5.85;3.55;;;;;;;21.84;54.14;100875.78;146697;623;46008;-59
2021/06/14 01:11:53;;;;;;;5.68;3.20;;;;;;;21.83;53.77;100884.78;146694;612;46016;-59
2021/06/14 01:14:56;;;;;;;5.78;3.78;;;;;;;21.82;54.01;100866.19;146696;586;46018;-59
2021/06/14 01:17:49;;;;;;;6.40;3.50;;;;;;;21.99;53.63;100865.78;146693;594;46019;-60
2021/06/14 01:20:57;;;;;;;6.67;3.40;;;;;;;22.01;53.40;100865.66;146695;613;46018;-60
2021/06/14 01:23:48;;;;;;;5.00;3.72;;;;;;;22.02;54.26;100868.25;146693;612;46019;-60
2021/06/14 01:26:24;;;;;;;5.87;3.30;;;;;;;22.02;53.51;100867.37;146695;604;46018;-60
2021/06/14 01:28:59;;;;;;;5.22;3.25;;;;;;;21.98;53.14;100867.63;146696;568;46010;-59
2021/06/14 01:31:35;;;;;;;6.80;3.10;;;;;;;21.98;53.07;100861.44;146697;585;46008;-59
2021/06/14 01:34:08;;;;;;;5.75;3.20;;;;;;;22.01;53.20;100871.00;146696;576;46025;-60
2021/06/14 01:36:40;;;;;;;4.75;3.25;;;;;;;22.03;52.69;100869.94;146697;577;46018;-59
2021/06/14 01:39:10;;;;;;;5.80;3.40;;;;;;;22.04;52.68;100877.00;146693;585;47023;-59
2021/06/14 01:41:42;;;;;;;5.43;2.80;;;;;;;22.05;52.20;100884.06;146697;589;47008;-59
2021/06/14 01:44:14;;;;;;;6.25;2.50;;;;;;;22.07;51.54;100875.91;146695;575;46010;-59
2021/06/14 01:46:45;;;;;;;6.15;2.60;;;;;;;22.05;51.32;100872.50;146699;592;46008;-59
2021/06/14 01:49:17;;;;;;;5.97;2.70;;;;;;;22.04;51.11;100877.00;146697;613;46010;-58
2021/06/14 01:51:48;;;;;;;5.82;2.80;;;;;;;22.03;51.27;100869.94;146697;588;46018;-60
2021/06/14 01:54:19;;;;;;;9.02;2.70;;;;;;;22.01;51.28;100876.34;146693;602;46905;-60
2021/06/14 01:56:52;;;;;;;4.90;2.80;;;;;;;22.01;51.22;100865.66;146695;579;46018;-60
2021/06/14 01:59:35;;;;;;;4.47;2.70;;;;;;;22.00;50.58;100878.19;146694;570;46018;-60
2021/06/14 02:02:08;;;;;;;5.50;2.60;;;;;;;22.02;50.85;100876.28;146696;590;46018;-60
2021/06/14 02:04:44;;;;;;;5.22;2.90;;;;;;;22.06;50.34;100874.22;146694;636;46018;-61
2021/06/14 02:07:16;;;;;;;5.03;3.00;;;;;;;22.05;50.89;100872.50;146697;581;45020;-60
2021/06/14 02:09:47;;;;;;;4.22;2.70;;;;;;;22.01;50.87;100871.00;146696;581;46010;-60
2021/06/14 02:12:17;;;;;;;5.57;3.10;;;;;;;21.97;50.88;100870.41;146697;583;46018;-60
2021/06/14 02:14:48;;;;;;;4.60;2.70;;;;;;;21.95;51.39;100856.28;146696;569;46017;-60
2021/06/14 02:17:26;;;;;;;6.32;2.78;;;;;;;21.95;50.89;100861.63;146692;571;47018;-59
2021/06/14 02:19:59;;;;;;;7.37;3.10;;;;;;;21.94;51.00;100860.78;146694;634;46010;-58
2021/06/14 02:22:29;;;;;;;6.13;2.73;;;;;;;21.94;51.12;100858.13;146698;570;46008;-59
2021/06/14 02:25:00;;;;;;;5.32;2.85;;;;;;;21.91;50.69;100853.00;146695;567;46010;-59
2021/06/14 02:27:31;;;;;;;4.60;3.10;;;;;;;21.89;50.64;100862.94;146696;574;46018;-59
2021/06/14 02:30:05;;;;;;;6.78;2.70;;;;;;;21.85;50.75;100850.75;146693;641;47010;-59
2021/06/14 02:32:35;;;;;;;3.92;3.00;;;;;;;21.82;50.53;100853.69;146697;581;46010;-60
2021/06/14 02:35:09;;;;;;;4.20;2.90;;;;;;;21.82;50.75;100844.81;146696;610;46016;-59
2021/06/14 02:37:45;;;;;;;5.80;3.08;;;;;;;21.75;50.92;100834.56;146697;583;46019;-60
2021/06/14 02:40:16;;;;;;;4.05;2.95;;;;;;;21.70;51.13;100828.69;146689;573;47010;-59
2021/06/14 02:42:48;;;;;;;4.32;2.97;;;;;;;21.63;51.22;100840.81;146696;580;46018;-59
2021/06/14 02:45:19;;;;;;;5.20;3.05;;;;;;;21.64;50.24;100842.50;146692;587;46020;-59
2021/06/14 02:47:50;;;;;;;4.85;2.87;;;;;;;21.59;48.76;100833.97;146698;564;46010;-60
2021/06/14 02:50:23;;;;;;;4.25;2.30;;;;;;;21.61;48.07;100827.56;146696;569;46016;-60
2021/06/14 02:52:55;;;;;;;5.85;2.53;;;;;;;21.55;47.36;100827.16;146696;580;46019;-60
2021/06/14 02:55:56;;;;;;;4.85;2.40;;;;;;;21.62;46.76;100833.75;146695;591;46010;-60
2021/06/14 02:58:32;;;;;;;3.50;2.28;;;;;;;21.64;46.52;100827.31;146695;569;46018;-60
2021/06/14 03:01:08;;;;;;;3.95;2.45;;;;;;;21.70;46.55;100820.69;146695;574;47011;-60
2021/06/14 03:03:43;;;;;;;5.15;2.30;;;;;;;21.62;44.73;100833.75;146698;580;46008;-60
2021/06/14 03:06:17;;;;;;;8.32;3.83;;;;;;;21.68;45.71;100829.75;146692;608;46018;-61
2021/06/14 03:08:49;;;;;;;7.75;2.53;;;;;;;21.68;45.47;100830.63;146699;583;45045;-60
2021/06/14 03:11:26;;;;;;;4.95;2.58;;;;;;;21.64;45.69;100835.34;146697;566;46016;-60
2021/06/14 03:13:58;;;;;;;9.85;3.85;;;;;;;21.59;46.91;100823.28;146694;595;46008;-60
2021/06/14 03:16:31;;;;;;;6.25;3.40;;;;;;;21.54;47.38;100825.44;146694;591;47011;-61
2021/06/14 03:19:02;;;;;;;5.72;2.65;;;;;;;21.54;47.19;100826.31;146698;594;46008;-60
2021/06/14 03:21:34;;;;;;;5.50;2.33;;;;;;;21.51;46.14;100820.28;146695;564;46018;-62
2021/06/14 03:24:06;;;;;;;4.87;2.00;;;;;;;21.49;44.88;100823.06;146694;578;46018;-60
2021/06/14 03:26:44;;;;;;;7.32;2.00;;;;;;;21.48;43.74;100824.88;146695;577;46907;-60
2021/06/14 03:29:21;;;;;;;4.37;2.10;;;;;;;21.54;44.47;100828.09;146697;583;46017;-60
2021/06/14 03:31:53;;;;;;;7.72;2.33;;;;;;;21.58;44.29;100818.91;146694;621;46010;-60
2021/06/14 03:34:27;;;;;;;4.00;1.95;;;;;;;21.53;43.29;100823.72;146696;700;46018;-60
2021/06/14 03:36:59;;;;;;;5.80;2.30;;;;;;;21.56;43.46;100831.53;146694;576;46011;-60
2021/06/14 03:39:30;;;;;;;9.88;2.00;;;;;;;21.47;41.42;100839.22;146696;620;46008;-61
2021/06/14 03:42:01;;;;;;;7.75;2.17;;;;;;;21.50;42.07;100837.28;146694;581;46018;-61
2021/06/14 03:44:31;;;;;;;6.05;1.70;;;;;;;21.52;41.01;100843.37;146695;566;46908;-60
2021/06/14 03:47:02;;;;;;;7.75;1.98;;;;;;;21.51;39.68;100844.31;146693;578;46025;-60
2021/06/14 03:49:33;;;;;;;6.37;1.85;;;;;;;21.52;37.62;100848.72;146696;579;46018;-60
2021/06/14 03:52:04;;;;;;;3.40;1.60;;;;;;;21.60;37.73;100843.69;146692;598;46018;-60
2021/06/14 03:54:35;;;;;;;5.82;1.90;;;;;;;21.69;39.26;100850.19;146699;618;46018;-59
2021/06/14 03:57:07;;;;;;;5.53;1.73;;;;;;;21.65;37.07;100846.87;146696;573;46010;-60
2021/06/14 03:59:37;;;;;;;5.18;1.80;;;;;;;21.76;38.65;100851.44;146697;602;46018;-60
2021/06/14 04:02:08;;;;;;;4.93;2.00;;;;;;;21.79;37.61;100857.41;146696;566;46016;-61
2021/06/14 04:04:56;;;;;;;5.95;1.80;;;;;;;21.84;37.83;100856.22;146696;573;46018;-60
2021/06/14 04:07:27;;;;;;;5.12;1.80;;;;;;;21.95;37.82;100858.97;146693;613;46019;-60
2021/06/14 04:10:00;;;;;;;6.00;1.90;;;;;;;22.03;38.35;100853.91;146696;657;46018;-61
2021/06/14 04:12:32;;;;;;;7.70;1.85;;;;;;;22.11;37.14;100848.84;146693;563;47022;-61
2021/06/14 04:15:05;;;;;;;6.07;1.80;;;;;;;22.15;36.02;100852.97;146697;633;46019;-61
2021/06/14 04:17:42;;;;;;;3.58;1.58;;;;;;;22.25;36.10;100857.66;146694;610;46908;-61
2021/06/14 04:20:14;;;;;;;4.53;1.60;;;;;;;22.28;35.90;100852.06;146697;584;46008;-61
2021/06/14 04:22:46;;;;;;;4.85;1.83;;;;;;;22.32;36.01;100850.84;146696;583;46016;-61
2021/06/14 04:25:16;;;;;;;5.90;1.30;;;;;;;22.39;35.96;100857.50;146700;588;46008;-60
2021/06/14 04:27:47;;;;;;;5.72;1.80;;;;;;;22.45;34.94;100859.69;146695;645;46010;-60
2021/06/14 04:30:19;;;;;;;7.53;1.83;;;;;;;22.51;35.61;100850.34;146697;648;46019;-61
2021/06/14 04:32:50;;;;;;;6.25;1.62;;;;;;;22.55;35.43;100867.03;146696;597;46010;-61
2021/06/14 04:35:20;;;;;;;5.32;1.70;;;;;;;22.62;35.16;100860.22;146699;592;46018;-61
2021/06/14 04:37:51;;;;;;;7.25;1.73;;;;;;;22.73;35.37;100860.28;146696;577;46010;-60
2021/06/14 04:40:21;;;;;;;7.60;1.80;;;;;;;22.81;35.09;100852.50;146698;573;46018;-60
2021/06/14 04:42:52;;;;;;;4.25;1.80;;;;;;;22.95;35.93;100861.28;146696;563;46907;-61
2021/06/14 04:45:23;;;;;;;4.85;1.87;;;;;;;22.99;36.46;100855.56;146697;627;45019;-61
2021/06/14 04:47:54;;;;;;;4.07;1.85;;;;;;;23.07;36.45;100860.31;146693;613;47907;-60
2021/06/14 04:50:24;;;;;;;6.03;1.70;;;;;;;23.00;35.19;100867.13;146699;571;46018;-60
2021/06/14 04:52:57;;;;;;;4.95;1.70;;;;;;;23.08;36.23;100858.50;146694;629;46023;-60
2021/06/14 04:55:28;;;;;;;5.20;1.70;;;;;;;23.19;36.32;100850.50;146697;620;46018;-61
2021/06/14 04:57:58;;;;;;;5.75;2.10;;;;;;;23.27;36.76;100852.56;146697;613;46016;-61
2021/06/14 05:00:29;;;;;;;6.20;1.92;;;;;;;23.33;36.79;100849.38;146698;569;46011;-61
2021/06/14 05:03:00;;;;;;;8.77;1.80;;;;;;;23.29;36.81;100848.81;146696;569;46016;-59
2021/06/14 05:05:31;;;;;;;6.12;1.83;;;;;;;23.27;36.28;100850.75;146699;596;46008;-60
2021/06/14 05:08:02;;;;;;;5.10;1.50;;;;;;;23.11;34.29;100848.41;146693;573;47908;-60
2021/06/14 05:10:32;;;;;;;6.55;1.90;;;;;;;23.05;34.73;100840.00;146700;616;46008;-60
2021/06/14 05:13:03;;;;;;;8.27;2.58;;;;;;;22.94;32.46;100854.22;146696;587;46010;-60
2021/06/14 05:15:34;;;;;;;5.10;1.70;;;;;;;22.96;34.49;100842.44;146699;629;46008;-60
2021/06/14 05:18:05;;;;;;;2.92;1.55;;;;;;;22.96;34.08;100847.78;146698;603;46016;-61
2021/06/14 05:20:36;;;;;;;10.23;1.62;;;;;;;22.88;33.31;100849.34;146700;640;46008;-60
2021/06/14 05:23:07;;;;;;;7.90;2.40;;;;;;;22.85;33.71;100849.59;146696;584;46010;-60
2021/06/14 05:25:38;;;;;;;4.80;1.70;;;;;;;22.81;33.33;100827.56;146700;592;46008;-60
2021/06/14 05:28:09;;;;;;;6.15;1.80;;;;;;;22.80;32.50;100831.22;146696;610;46018;-59
2021/06/14 05:30:39;;;;;;;5.62;1.52;;;;;;;22.75;33.01;100826.22;146694;627;46019;-59
2021/06/14 05:33:10;;;;;;;4.93;1.40;;;;;;;22.75;32.45;100834.25;146695;592;47010;-59
2021/06/14 05:35:40;;;;;;;5.18;1.60;;;;;;;22.73;33.02;100822.81;146697;579;46010;-59
2021/06/14 05:38:11;;;;;;;5.30;1.50;;;;;;;22.71;33.16;100816.72;146697;585;46011;-61
2021/06/14 05:40:42;;;;;;;3.33;1.40;;;;;;;22.70;32.45;100814.16;146699;569;46018;-62
2021/06/14 05:43:12;;;;;;;6.82;1.75;;;;;;;22.68;32.26;100808.06;146696;620;46017;-61
2021/06/14 05:45:43;;;;;;;4.62;1.52;;;;;;;22.55;31.39;100802.81;146699;616;46008;-62
2021/06/14 05:48:13;;;;;;;6.47;1.50;;;;;;;22.53;32.47;100823.50;146695;590;46016;-61
2021/06/14 05:50:44;;;;;;;3.00;1.35;;;;;;;22.44;32.34;100831.25;146698;583;46008;-61
2021/06/14 05:53:15;;;;;;;7.50;1.85;;;;;;;22.49;32.77;100822.88;146696;647;46908;-59
2021/06/14 05:55:45;;;;;;;4.75;1.80;;;;;;;22.56;32.94;100825.94;146699;631;46008;-59
2021/06/14 05:58:17;;;;;;;4.93;1.50;;;;;;;22.80;33.09;100834.75;146695;570;46025;-59
2021/06/14 06:00:47;;;;;;;5.47;1.60;;;;;;;23.04;32.89;100819.56;146699;604;46008;-59
2021/06/14 06:03:18;;;;;;;6.25;1.65;;;;;;;23.23;31.48;100835.03;146696;625;47010;-59
2021/06/14 06:05:48;;;;;;;6.05;1.48;;;;;;;23.41;32.44;100833.56;146699;595;46008;-59
2021/06/14 06:08:19;;;;;;;3.72;1.50;;;;;;;23.58;31.01;100820.63;146697;571;46010;-59
2021/06/14 06:10:49;;;;;;;5.53;1.40;;;;;;;23.68;31.24;100826.09;146699;566;46008;-61
2021/06/14 06:13:20;;;;;;;6.62;1.60;;;;;;;23.86;31.76;100827.25;146696;614;46010;-61
2021/06/14 06:15:50;;;;;;;7.03;1.50;;;;;;;23.99;31.85;100825.31;146700;563;46008;-60
2021/06/14 06:18:21;;;;;;;7.93;1.60;;;;;;;24.25;31.49;100821.41;146696;565;46018;-59
2021/06/14 06:20:52;;;;;;;3.67;1.75;;;;;;;24.27;30.86;100819.47;146698;583;46010;-58
2021/06/14 06:23:23;;;;;;;6.10;1.40;;;;;;;24.39;30.72;100831.84;146698;572;46016;-60
2021/06/14 06:25:54;;;;;;;4.32;1.12;;;;;;;24.40;29.69;100822.81;146699;667;46008;-59
2021/06/14 06:28:24;;;;;;;5.50;1.23;;;;;;;24.47;29.36;100832.03;146698;587;46011;-59
2021/06/14 06:30:55;;;;;;;4.32;1.40;;;;;;;24.51;29.60;100832.63;146698;610;46008;-60
2021/06/14 06:33:26;;;;;;;2.75;1.30;;;;;;;24.61;28.80;100824.63;146697;586;46010;-60
2021/06/14 06:35:57;;;;;;;4.05;1.40;;;;;;;24.59;28.60;100827.47;146699;818;46008;-59
2021/06/14 06:38:27;;;;;;;5.40;1.40;;;;;;;24.65;28.95;100816.22;146695;648;46018;-58
2021/06/14 06:40:58;;;;;;;6.93;1.67;;;;;;;24.70;28.22;100823.87;146697;627;46018;-59
2021/06/14 06:43:29;;;;;;;5.35;1.33;;;;;;;24.68;28.48;100820.47;146697;579;46011;-59
2021/06/14 06:45:59;;;;;;;5.30;1.40;;;;;;;24.78;28.64;100821.38;146699;674;46008;-59
2021/06/14 06:48:30;;;;;;;4.37;1.20;;;;;;;24.80;28.41;100818.56;146697;615;46016;-60
2021/06/14 06:51:01;;;;;;;5.40;1.30;;;;;;;24.84;28.21;100815.47;146699;564;46009;-59
2021/06/14 06:53:31;;;;;;;7.82;1.35;;;;;;;24.88;28.38;100825.94;146696;761;46018;-59
2021/06/14 06:56:03;;;;;;;5.43;1.40;;;;;;;24.97;28.26;100817.09;146701;606;45047;-59
2021/06/14 06:58:34;;;;;;;5.60;1.40;;;;;;;24.98;28.42;100827.69;146697;875;46011;-59
2021/06/14 07:01:04;;;;;;;6.18;1.45;;;;;;;24.99;28.28;100818.66;146699;606;46018;-59
2021/06/14 07:03:35;;;;;;;4.78;1.30;;;;;;;25.11;28.39;100814.06;146697;578;46018;-59
2021/06/14 07:06:06;;;;;;;5.47;1.25;;;;;;;25.16;28.07;100809.13;146701;631;45038;-59
2021/06/14 07:08:36;;;;;;;4.10;1.30;;;;;;;25.27;27.56;100820.75;146696;663;46018;-60
2021/06/14 07:11:07;;;;;;;5.82;1.50;;;;;;;25.45;28.40;100818.28;146698;621;46008;-59
2021/06/14 07:13:37;;;;;;;8.88;1.70;;;;;;;25.57;28.22;100821.72;146695;607;47010;-59
2021/06/14 07:16:08;;;;;;;5.47;1.33;;;;;;;25.59;28.15;100825.09;146701;577;46018;-60
2021/06/14 07:18:39;;;;;;;5.45;1.42;;;;;;;25.64;28.01;100818.34;146698;634;46010;-59
2021/06/14 07:21:09;;;;;;;4.82;1.20;;;;;;;25.70;27.62;100816.94;146701;565;46008;-59
2021/06/14 07:23:40;;;;;;;4.82;1.27;;;;;;;25.62;27.40;100808.72;146697;631;46018;-60
2021/06/14 07:26:11;;;;;;;7.12;1.90;;;;;;;25.63;27.84;100819.31;146700;570;46018;-59
2021/06/14 07:28:41;;;;;;;3.42;1.42;;;;;;;25.70;28.35;100816.94;146698;631;46016;-59
2021/06/14 07:31:12;;;;;;;7.72;1.40;;;;;;;25.70;27.79;100816.94;146700;599;46010;-59
2021/06/14 07:33:44;;;;;;;8.57;1.62;;;;;;;25.83;28.54;100811.28;146698;610;46010;-58
2021/06/14 07:36:14;;;;;;;3.72;1.20;;;;;;;25.87;28.38;100811.84;146697;591;46018;-60
2021/06/14 07:38:45;;;;;;;8.98;1.55;;;;;;;25.74;27.22;100809.44;146697;630;46010;-59
2021/06/14 07:41:15;;;;;;;7.45;1.42;;;;;;;25.89;26.97;100809.87;146699;604;46018;-59
2021/06/14 07:43:46;;;;;;;7.22;1.40;;;;;;;25.82;27.24;100806.87;146696;597;46019;-59
2021/06/14 07:46:17;;;;;;;4.62;1.23;;;;;;;25.85;27.24;100818.22;146697;616;46018;-59
2021/06/14 07:48:48;;;;;;;4.68;1.25;;;;;;;25.91;27.23;100818.66;146697;573;46017;-59
2021/06/14 07:51:18;;;;;;;5.10;1.23;;;;;;;25.96;27.10;100811.03;146700;600;46008;-59
2021/06/14 07:53:50;;;;;;;4.85;1.50;;;;;;;25.97;27.46;100818.06;146698;569;46016;-59
2021/06/14 07:56:21;;;;;;;7.22;1.40;;;;;;;26.03;27.19;100817.56;146701;626;46008;-59
2021/06/14 07:58:52;;;;;;;3.78;1.40;;;;;;;26.14;27.69;100820.09;146692;606;47010;-59
2021/06/14 08:01:22;;;;;;;5.20;1.60;;;;;;;26.21;27.60;100808.78;146698;622;46008;-59
2021/06/14 08:03:53;;;;;;;8.32;1.48;;;;;;;26.25;27.66;100807.50;146697;700;46017;-59
2021/06/14 08:06:23;;;;;;;3.67;1.50;;;;;;;26.28;27.29;100820.66;146701;585;46008;-59
2021/06/14 08:08:55;;;;;;;6.72;1.65;;;;;;;26.37;27.99;100825.19;146695;576;46018;-59
2021/06/14 08:11:27;;;;;;;4.53;1.30;;;;;;;26.48;27.74;100808.88;146701;588;46008;-59
2021/06/14 08:14:05;;;;;;;3.53;1.30;;;;;;;26.55;27.35;100808.31;146699;629;45023;-59
2021/06/14 08:16:41;;;;;;;7.18;1.40;;;;;;;26.54;26.57;100820.06;146697;683;47008;-59
2021/06/14 08:19:17;;;;;;;8.77;1.60;;;;;;;26.58;26.74;100822.31;146696;572;46018;-59
2021/06/14 08:22:11;;;;;;;8.00;1.45;;;;;;;26.52;26.96;100818.38;146699;595;46018;-59
2021/06/14 08:27:34;;;;;;;7.05;1.42;;;;;;;26.63;27.92;100821.91;146696;602;47009;-59
2021/06/14 08:30:09;;;;;;;3.00;1.15;;;;;;;26.77;27.20;100805.31;146695;630;46018;-59
2021/06/14 08:32:40;;;;;;;6.18;1.27;;;;;;;26.83;27.14;100799.34;146695;589;46018;-59
2021/06/14 08:35:14;;;;;;;6.87;1.62;;;;;;;26.89;27.23;100800.59;146698;613;46908;-59
2021/06/14 08:37:47;;;;;;;8.65;1.87;;;;;;;26.72;27.60;100807.56;146698;589;46008;-60
2021/06/14 08:40:29;;;;;;;6.47;1.33;;;;;;;26.79;27.79;100800.63;146696;569;47010;-60
2021/06/14 08:43:04;;;;;;;4.78;1.20;;;;;;;26.80;27.60;100814.94;146698;573;46018;-59
2021/06/14 08:45:39;;;;;;;6.45;1.50;;;;;;;26.86;27.66;100806.28;146696;600;46018;-60
2021/06/14 08:48:12;;;;;;;6.18;1.50;;;;;;;26.85;27.33;100797.34;146699;572;46008;-60
2021/06/14 08:50:43;;;;;;;5.82;1.30;;;;;;;26.85;26.87;100801.88;146697;625;46011;-60
2021/06/14 08:53:14;;;;;;;5.05;1.30;;;;;;;26.75;26.73;100801.91;146699;579;46008;-60
2021/06/14 08:55:46;;;;;;;9.30;1.50;;;;;;;26.77;27.34;100807.16;146695;588;46018;-59
2021/06/14 08:58:16;;;;;;;5.28;1.37;;;;;;;26.87;27.29;100804.44;146696;610;46019;-60
2021/06/14 09:00:47;;;;;;;4.25;1.30;;;;;;;26.99;27.63;100801.38;146694;592;47010;-59
2021/06/14 09:03:21;;;;;;;3.20;1.35;;;;;;;27.13;27.67;100802.78;146699;590;46008;-60
2021/06/14 09:05:52;;;;;;;6.18;1.30;;;;;;;27.30;27.62;100797.56;146698;638;46010;-60
2021/06/14 09:08:24;;;;;;;4.75;1.45;;;;;;;27.48;27.57;100793.09;146698;632;46018;-60
2021/06/14 09:10:55;;;;;;;6.30;1.50;;;;;;;27.62;26.54;100801.66;146697;610;46018;-60
2021/06/14 09:13:31;;;;;;;6.53;1.50;;;;;;;27.61;26.34;100798.12;146699;623;46008;-59
2021/06/14 09:16:16;;;;;;;4.07;1.50;;;;;;;27.61;26.34;100794.56;146697;569;46010;-60
2021/06/14 09:18:47;;;;;;;4.82;1.35;;;;;;;27.67;26.36;100802.06;146698;618;46019;-59
2021/06/14 09:21:19;;;;;;;4.62;1.50;;;;;;;27.62;26.74;100793.56;146695;641;46019;-60
2021/06/14 09:23:56;;;;;;;7.62;1.60;;;;;;;27.67;26.50;100793.97;146700;609;46008;-60
2021/06/14 09:26:45;;;;;;;6.80;1.50;;;;;;;27.70;26.54;100797.19;146699;570;45045;-60
2021/06/14 09:29:25;;;;;;;4.97;1.50;;;;;;;27.86;25.76;100796.50;146699;616;46008;-60
2021/06/14 09:32:03;;;;;;;4.75;1.40;;;;;;;27.81;26.07;100806.91;146697;575;46010;-60
2021/06/14 09:34:41;;;;;;;4.90;1.50;;;;;;;27.67;25.15;100791.28;146700;596;46008;-58
2021/06/14 09:37:16;;;;;;;5.07;1.50;;;;;;;27.58;25.38;100803.81;146697;591;46016;-59
2021/06/14 09:39:49;;;;;;;4.35;1.58;;;;;;;27.65;25.48;100787.88;146699;664;46018;-60
2021/06/14 09:42:27;;;;;;;6.82;1.70;;;;;;;27.64;25.99;100794.25;146697;619;46016;-59
2021/06/14 09:45:07;;;;;;;5.97;1.25;;;;;;;27.86;25.03;100796.50;146698;578;46018;-60
2021/06/14 09:47:38;;;;;;;5.45;1.50;;;;;;;27.82;24.94;100805.06;146697;570;46016;-60
2021/06/14 09:50:10;;;;;;;7.50;1.40;;;;;;;27.83;25.70;100791.44;146698;612;46019;-59
2021/06/14 09:52:41;;;;;;;4.82;1.50;;;;;;;27.76;25.20;100795.75;146693;586;47022;-59
2021/06/14 09:55:17;;;;;;;3.03;1.30;;;;;;;27.62;25.55;100790.88;146700;591;46008;-59
2021/06/14 09:57:47;;;;;;;7.12;1.30;;;;;;;27.64;25.95;100780.78;146696;608;46010;-59
2021/06/14 10:00:19;;;;;;;4.43;1.40;;;;;;;27.72;25.40;100798.91;146698;620;46018;-59
2021/06/14 10:02:58;;;;;;;9.57;1.58;;;;;;;27.77;24.98;100801.97;146697;570;47010;-60
2021/06/14 10:05:31;;;;;;;4.93;1.70;;;;;;;27.84;24.96;100787.75;146698;569;46021;-60
2021/06/14 10:08:03;;;;;;;5.50;1.45;;;;;;;27.77;25.33;100791.19;146695;574;47010;-60
2021/06/14 10:10:37;;;;;;;4.55;1.25;;;;;;;27.84;25.55;100794.97;146700;610;46019;-59
2021/06/14 10:13:08;;;;;;;4.78;1.30;;;;;;;27.86;25.15;100788.41;146693;590;47021;-59
2021/06/14 10:15:40;;;;;;;4.37;1.40;;;;;;;27.87;24.21;100791.94;146698;574;46018;-59
2021/06/14 10:18:11;;;;;;;4.05;1.20;;;;;;;27.89;23.22;100791.81;146698;637;46017;-59
2021/06/14 10:20:42;;;;;;;5.80;1.40;;;;;;;27.73;23.13;100796.03;146699;591;46018;-60
2021/06/14 10:23:12;;;;;;;5.30;1.20;;;;;;;27.57;23.98;100785.94;146693;610;47907;-59
2021/06/14 10:25:43;;;;;;;3.87;1.27;;;;;;;27.59;23.65;100778.53;146698;624;46018;-59
2021/06/14 10:28:13;;;;;;;5.20;1.20;;;;;;;27.80;23.42;100764.78;146696;619;46018;-60
2021/06/14 10:30:44;;;;;;;5.32;1.33;;;;;;;27.75;23.84;100777.88;146699;577;46018;-59
2021/06/14 10:33:16;;;;;;;2.65;1.17;;;;;;;27.76;23.00;100779.56;146694;676;46018;-60
2021/06/14 10:35:46;;;;;;;4.37;1.12;;;;;;;27.76;22.97;100766.09;146697;577;46018;-59
2021/06/14 10:38:18;;;;;;;3.92;1.20;;;;;;;27.78;22.88;100749.75;146697;593;46010;-60
2021/06/14 10:40:51;;;;;;;5.12;1.30;;;;;;;27.92;23.07;100764.53;146698;663;46019;-59
2021/06/14 10:43:26;;;;;;;9.77;2.10;;;;;;;27.98;22.71;100753.97;146698;592;46010;-60
2021/06/14 10:45:58;;;;;;;5.20;1.50;;;;;;;28.00;21.96;100746.59;146698;593;46018;-59
2021/06/14 10:48:36;;;;;;;5.12;1.20;;;;;;;27.90;22.36;100751.19;146697;607;46010;-58
2021/06/14 10:51:19;;;;;;;4.62;1.35;;;;;;;27.76;22.47;100752.59;146697;565;47008;-59
2021/06/14 10:53:59;;;;;;;6.55;1.50;;;;;;;27.74;22.87;100761.84;146695;608;46018;-60
2021/06/14 10:56:29;;;;;;;4.40;1.25;;;;;;;27.78;22.26;100749.75;146697;580;46018;-60
2021/06/14 10:59:10;;;;;;;5.25;1.37;;;;;;;27.79;22.64;100744.19;146696;607;46010;-60
2021/06/14 11:01:45;;;;;;;4.47;1.20;;;;;;;27.84;22.22;100752.69;146695;627;46018;-60
2021/06/14 11:04:27;;;;;;;4.62;1.30;;;;;;;27.95;22.08;100738.06;146694;564;46907;-60
2021/06/14 11:06:59;;;;;;;2.40;1.00;;;;;;;28.04;21.93;100741.72;146697;590;46008;-60
2021/06/14 11:09:44;;;;;;;4.43;1.30;;;;;;;28.05;22.77;100729.94;146695;604;46018;-60
2021/06/14 11:12:30;;;;;;;3.08;1.15;;;;;;;28.20;21.54;100731.06;146698;598;46018;-60
2021/06/14 11:15:11;;;;;;;3.65;1.30;;;;;;;28.24;21.04;100720.81;146696;634;46010;-59
2021/06/14 11:17:41;;;;;;;5.03;1.10;;;;;;;28.28;20.72;100729.41;146694;604;46009;-58
2021/06/14 11:20:14;;;;;;;5.50;1.30;;;;;;;28.34;20.67;100716.13;146695;592;46016;-59
2021/06/14 11:22:48;;;;;;;4.57;1.10;;;;;;;28.34;20.68;100721.53;146695;594;47008;-60
2021/06/14 11:25:31;;;;;;;8.48;1.30;;;;;;;28.26;21.29;100716.06;146695;592;46010;-59
2021/06/14 11:28:05;;;;;;;2.58;1.10;;;;;;;28.30;20.89;100706.66;146694;665;46907;-59
2021/06/14 11:30:49;;;;;;;4.03;1.17;;;;;;;28.52;20.57;100723.31;146694;569;46010;-60
2021/06/14 11:33:29;;;;;;;4.15;1.10;;;;;;;28.48;19.63;100724.66;146696;622;46019;-60
2021/06/14 11:35:59;;;;;;;3.70;1.20;;;;;;;28.62;20.48;100715.94;146696;575;46016;-60
2021/06/14 11:38:35;;;;;;;5.55;1.10;;;;;;;28.39;19.15;100704.87;146697;636;46008;-59
2021/06/14 11:41:05;;;;;;;3.40;0.93;;;;;;;28.42;20.11;100696.44;146695;593;46016;-59
2021/06/14 11:43:36;;;;;;;7.47;1.05;;;;;;;28.46;20.17;100703.22;146698;584;46008;-60
2021/06/14 11:46:20;;;;;;;4.47;1.02;;;;;;;28.37;19.22;100696.91;146695;635;46018;-60
2021/06/14 11:48:51;;;;;;;2.40;0.90;;;;;;;28.44;19.84;100691.72;146698;622;46019;-59
2021/06/14 11:51:22;;;;;;;7.12;1.12;;;;;;;28.47;19.38;100696.81;146696;574;46908;-59
2021/06/14 11:53:55;;;;;;;4.43;1.10;;;;;;;28.48;19.23;100684.97;146698;655;46008;-59